Arklow Mill — EIJD9 — position and weather

sailwx.info

Track history (hours):
 
Tides and Currents Weather Stations Pressure Air Temp Water Temp Dewpoint Dewpoint Depression Visibility Wind Speed Wind Dir Waves Ship Positions

Arklow Mill

Last reported at 2015-Jun-29 10:33 UTC. Time now 2015-Jul-03 06:15 UTC.
Position N 50°39' W 010°41'.

Length 137 m; draft 8.4 m.

Type: Ship. MMSI: 250002022.

Date/timePositionNaut miles runAvg speedWind from/ knotsBaromVisibWave heightAir tempDewpointWater temp
2015-Jun-29 10:33N 50°39' W 010°41'43114.8
2015-Jun-28 05:28N 43°29' W 010°20'1314.7
2015-Jun-28 04:34N 43°16' W 010°20'1514.8
2015-Jun-28 03:33N 43°01' W 010°19'1714.8
2015-Jun-28 02:24N 42°44' W 010°18'4814.8
2015-Jun-27 23:11N 41°56' W 010°14'914.4
2015-Jun-27 22:33N 41°47' W 010°14'2214.7
2015-Jun-27 21:04N 41°26' W 010°11'814.7
2015-Jun-27 20:30N 41°17' W 010°09'1414.4
2015-Jun-27 19:33N 41°04' W 010°06'1514.5
2015-Jun-27 18:33N 40°49' W 010°04'1514.6
2015-Jun-27 17:33N 40°35' W 010°04'1414.4
2015-Jun-27 16:34N 40°21' W 010°02'1414.2
2015-Jun-27 15:33N 40°06' W 009°60'1514.6
2015-Jun-27 14:33N 39°52' W 009°58'1414.4
2015-Jun-27 13:33N 39°38' W 009°57'1514.7
2015-Jun-27 12:33N 39°23' W 009°55'1414.5
2015-Jun-27 11:34N 39°09' W 009°53'1414.4
2015-Jun-27 10:33N 38°54' W 009°52'1414.4
2015-Jun-27 09:34N 38°40' W 009°49'1414.1
2015-Jun-27 08:33N 38°26' W 009°45'1413.7
2015-Jun-27 07:33N 38°12' W 009°44'1414.0
2015-Jun-27 06:33N 37°59' W 009°41'1414.3
2015-Jun-27 05:33N 37°45' W 009°37'1514.6
2015-Jun-27 04:33N 37°30' W 009°34'1414.5
2015-Jun-27 03:33N 37°16' W 009°30'1414.4
2015-Jun-27 02:33N 37°02' W 009°27'1414.1
2015-Jun-27 01:33N 36°49' W 009°21'1413.9
2015-Jun-27 00:33N 36°40' W 009°08'1514.8
2015-Jun-26 23:33N 36°35' W 008°50'1515.0
2015-Jun-26 22:33N 36°31' W 008°33'1515.0
2015-Jun-26 21:33N 36°27' W 008°14'13614.8
2015-Jun-26 12:21N 35°60' W 005°29'1114.0
2015-Jun-26 11:34N 36°04' W 005°17'11614.4
2015-Jun-26 03:31N 36°19' W 002°55'1415.1
2015-Jun-26 02:33N 36°22' W 002°37'1615.5
2015-Jun-26 01:33N 36°24' W 002°18'1514.9
2015-Jun-26 00:33N 36°32' W 002°02'1615.6
2015-Jun-25 23:33N 36°42' W 001°47'1615.6
2015-Jun-25 22:33N 36°53' W 001°33'1615.4
2015-Jun-25 21:30N 37°05' W 001°19'1515.4
2015-Jun-25 20:33N 37°15' W 001°06'1515.4
2015-Jun-25 19:34N 37°26' W 000°52'1615.6
2015-Jun-25 18:33N 37°34' W 000°35'1515.1
2015-Jun-25 17:33N 37°46' W 000°24'1515.1
2015-Jun-25 16:33N 37°59' W 000°15'1615.4
2015-Jun-25 15:33N 38°12' W 000°05'6115.2
2015-Jun-25 11:30N 39°02' E 000°42'1415.2
2015-Jun-25 10:33N 39°13' E 000°54'3913.0
2015-Jun-25 07:33N 39°43' E 001°26'1414.3
2015-Jun-25 06:33N 39°54' E 001°37'1514.9
2015-Jun-25 05:33N 40°06' E 001°49'1313.2
2015-Jun-25 04:33N 40°16' E 002°00'1313.3
2015-Jun-25 03:33N 40°27' E 002°10'1313.2
2015-Jun-25 02:33N 40°38' E 002°20'1313.2
2015-Jun-25 01:33N 40°49' E 002°30'1313.3
2015-Jun-25 00:33N 41°00' E 002°39'1313.2
2015-Jun-24 23:34N 41°11' E 002°48'1313.3
2015-Jun-24 22:33N 41°23' E 002°58'1413.2
2015-Jun-24 21:29N 41°35' E 003°08'1213.1
2015-Jun-24 20:33N 41°44' E 003°17'1313.1
2015-Jun-24 19:33N 41°53' E 003°30'2713.3
2015-Jun-24 17:31N 42°09' E 004°00'1313.1
2015-Jun-24 16:33N 42°19' E 004°11'1313.1
2015-Jun-24 15:33N 42°29' E 004°22'1313.2
2015-Jun-24 14:33N 42°39' E 004°32'1313.0
2015-Jun-24 13:33N 42°49' E 004°44'1312.9
2015-Jun-24 12:33N 42°59' E 004°55'1312.8
2015-Jun-24 11:33N 43°09' E 005°06'1212.0
2015-Jun-24 10:33N 43°19' E 005°15'5 4.6
2015-Jun-24 09:33N 43°20' E 005°21'0 0.0
2015-Jun-24 08:33N 43°20' E 005°21'0 0.0
2015-Jun-24 07:33N 43°20' E 005°21'0 0.0
2015-Jun-24 06:33N 43°20' E 005°21'0 0.0
2015-Jun-24 05:33N 43°20' E 005°21'0 0.0
2015-Jun-24 04:33N 43°20' E 005°21'0 0.0
2015-Jun-24 03:33N 43°20' E 005°21'0 0.0
2015-Jun-24 02:33N 43°20' E 005°21'0 0.0
2015-Jun-24 01:33N 43°20' E 005°21'0 0.0
2015-Jun-24 00:33N 43°20' E 005°21'0 0.0
2015-Jun-23 23:33N 43°20' E 005°21'0 0.0
2015-Jun-23 22:33N 43°20' E 005°21'0 0.0
2015-Jun-23 21:33N 43°20' E 005°21'0 0.0
2015-Jun-23 20:33N 43°20' E 005°21'0 0.0
2015-Jun-23 19:33N 43°20' E 005°21'0 0.0
2015-Jun-23 19:05N 43°20' E 005°21'0 0.0
2015-Jun-22 19:33N 43°20' E 005°21'0 0.0
2015-Jun-22 18:33N 43°20' E 005°21'0 0.0
2015-Jun-22 17:33N 43°20' E 005°21'0 0.0
2015-Jun-22 16:33N 43°20' E 005°21'0 0.0
2015-Jun-22 15:33N 43°20' E 005°21'0 0.0
2015-Jun-22 14:33N 43°20' E 005°21'0 0.0
2015-Jun-22 13:33N 43°20' E 005°21'0 0.0
2015-Jun-22 12:33N 43°20' E 005°21'0 0.0
2015-Jun-22 11:34N 43°20' E 005°21'0 0.0
2015-Jun-22 10:33N 43°20' E 005°21'0 0.0
2015-Jun-22 09:33N 43°20' E 005°21'0 0.0
2015-Jun-22 08:33N 43°20' E 005°21'0 0.0
2015-Jun-22 07:34N 43°20' E 005°21'0 0.0
2015-Jun-22 06:33N 43°20' E 005°21'0 0.0
2015-Jun-22 05:33N 43°20' E 005°21'0 0.0
2015-Jun-22 04:33N 43°20' E 005°21'0 0.0
2015-Jun-22 03:33N 43°20' E 005°21'0 0.0
2015-Jun-22 02:33N 43°20' E 005°21'0 0.0
2015-Jun-22 01:33N 43°20' E 005°21'0 0.0
2015-Jun-22 00:33N 43°20' E 005°21'0 0.0
2015-Jun-21 23:33N 43°20' E 005°21'0 0.0
2015-Jun-21 22:33N 43°20' E 005°21'0 0.0
2015-Jun-21 21:33N 43°20' E 005°21'0 0.0
2015-Jun-21 20:33N 43°20' E 005°21'0 0.0
2015-Jun-21 19:33N 43°20' E 005°21'0 0.0
2015-Jun-21 18:33N 43°20' E 005°21'0 0.0
2015-Jun-21 17:33N 43°20' E 005°21'0 0.0
2015-Jun-21 16:33N 43°20' E 005°21'0 0.0
2015-Jun-21 15:30N 43°20' E 005°21'0 0.0
2015-Jun-21 14:33N 43°20' E 005°21'0 0.0
2015-Jun-21 13:34N 43°20' E 005°21'0 0.0
2015-Jun-21 12:33N 43°20' E 005°21'0 0.0
2015-Jun-21 11:33N 43°20' E 005°21'0 0.0
2015-Jun-21 10:33N 43°20' E 005°21'0 0.0
2015-Jun-21 09:33N 43°20' E 005°21'0 0.0
2015-Jun-21 08:33N 43°20' E 005°21'0 0.0
2015-Jun-21 07:33N 43°20' E 005°21'0 0.0
2015-Jun-21 06:33N 43°20' E 005°21'0 0.0
2015-Jun-21 05:33N 43°20' E 005°21'0 0.0
2015-Jun-21 04:33N 43°20' E 005°21'0 0.0
2015-Jun-21 03:29N 43°20' E 005°21'0 0.0
2015-Jun-21 02:31N 43°20' E 005°21'0 0.0
2015-Jun-21 01:30N 43°20' E 005°21'0 0.0
2015-Jun-21 00:33N 43°20' E 005°21'0 0.0
2015-Jun-20 23:33N 43°20' E 005°21'0 0.0
2015-Jun-20 22:33N 43°20' E 005°21'0 0.0
2015-Jun-20 21:33N 43°20' E 005°21'0 0.0
2015-Jun-20 20:33N 43°20' E 005°21'0 0.0
2015-Jun-20 19:33N 43°20' E 005°21'0 0.0
2015-Jun-20 18:33N 43°20' E 005°21'0 0.0
2015-Jun-20 17:33N 43°20' E 005°21'0 0.0
2015-Jun-20 16:33N 43°20' E 005°21'0 0.0
2015-Jun-20 15:32N 43°20' E 005°21'0 0.0
2015-Jun-20 14:33N 43°20' E 005°21'0 0.0
2015-Jun-20 13:34N 43°20' E 005°21'0 0.0
2015-Jun-20 12:33N 43°20' E 005°21'0 0.0
2015-Jun-20 11:33N 43°20' E 005°21'0 0.0
2015-Jun-20 10:34N 43°20' E 005°21'0 0.0
2015-Jun-20 09:33N 43°20' E 005°21'0 0.0
2015-Jun-20 08:34N 43°20' E 005°21'0 0.0
2015-Jun-20 07:33N 43°20' E 005°21'0 0.0
2015-Jun-20 06:33N 43°20' E 005°21'0 0.0
2015-Jun-20 05:33N 43°20' E 005°21'0 0.0
2015-Jun-20 04:33N 43°20' E 005°21'0 0.0
2015-Jun-20 03:33N 43°20' E 005°21'0 0.0
2015-Jun-20 02:33N 43°20' E 005°21'0 0.0
2015-Jun-20 01:33N 43°20' E 005°21'0 0.0
2015-Jun-20 00:33N 43°20' E 005°21'0 0.0
2015-Jun-19 23:33N 43°20' E 005°21'0 0.0
2015-Jun-19 22:33N 43°20' E 005°21'0 0.0
2015-Jun-19 21:33N 43°20' E 005°21'0 0.0
2015-Jun-19 20:33N 43°20' E 005°21'0 0.0
2015-Jun-19 19:33N 43°20' E 005°21'0 0.0
2015-Jun-19 18:33N 43°20' E 005°21'0 0.0
2015-Jun-19 17:33N 43°20' E 005°21'0 0.0
2015-Jun-19 16:33N 43°20' E 005°21'0 0.0
2015-Jun-19 15:33N 43°20' E 005°21'0 0.0
2015-Jun-19 14:33N 43°20' E 005°21'0 0.0
2015-Jun-19 13:33N 43°20' E 005°21'0 0.0
2015-Jun-19 12:32N 43°20' E 005°21'0 0.0
2015-Jun-19 11:33N 43°20' E 005°21'0 0.0
2015-Jun-19 10:34N 43°20' E 005°21'  
Track history (hours):
 
Tides and Currents Weather Stations Pressure Air Temp Water Temp Dewpoint Dewpoint Depression Visibility Wind Speed Wind Dir Waves Ship Positions

Arklow Mill

Last reported at 2015-Jun-29 10:33 UTC. Time now 2015-Jul-03 06:15 UTC.
Position N 50°39' W 010°41'.

Length 137 m; draft 8.4 m.

Type: Ship. MMSI: 250002022.

Date/timePositionNaut miles runAvg speedWind from/ knotsBaromVisibWave heightAir tempDewpointWater temp
2015-Jun-29 10:33N 50°39' W 010°41'43114.8
2015-Jun-28 05:28N 43°29' W 010°20'1314.7
2015-Jun-28 04:34N 43°16' W 010°20'1514.8
2015-Jun-28 03:33N 43°01' W 010°19'1714.8
2015-Jun-28 02:24N 42°44' W 010°18'4814.8
2015-Jun-27 23:11N 41°56' W 010°14'914.4
2015-Jun-27 22:33N 41°47' W 010°14'2214.7
2015-Jun-27 21:04N 41°26' W 010°11'814.7
2015-Jun-27 20:30N 41°17' W 010°09'1414.4
2015-Jun-27 19:33N 41°04' W 010°06'1514.5
2015-Jun-27 18:33N 40°49' W 010°04'1514.6
2015-Jun-27 17:33N 40°35' W 010°04'1414.4
2015-Jun-27 16:34N 40°21' W 010°02'1414.2
2015-Jun-27 15:33N 40°06' W 009°60'1514.6
2015-Jun-27 14:33N 39°52' W 009°58'1414.4
2015-Jun-27 13:33N 39°38' W 009°57'1514.7
2015-Jun-27 12:33N 39°23' W 009°55'1414.5
2015-Jun-27 11:34N 39°09' W 009°53'1414.4
2015-Jun-27 10:33N 38°54' W 009°52'1414.4
2015-Jun-27 09:34N 38°40' W 009°49'1414.1
2015-Jun-27 08:33N 38°26' W 009°45'1413.7
2015-Jun-27 07:33N 38°12' W 009°44'1414.0
2015-Jun-27 06:33N 37°59' W 009°41'1414.3
2015-Jun-27 05:33N 37°45' W 009°37'1514.6
2015-Jun-27 04:33N 37°30' W 009°34'1414.5
2015-Jun-27 03:33N 37°16' W 009°30'1414.4
2015-Jun-27 02:33N 37°02' W 009°27'1414.1
2015-Jun-27 01:33N 36°49' W 009°21'1413.9
2015-Jun-27 00:33N 36°40' W 009°08'1514.8
2015-Jun-26 23:33N 36°35' W 008°50'1515.0
2015-Jun-26 22:33N 36°31' W 008°33'1515.0
2015-Jun-26 21:33N 36°27' W 008°14'13614.8
2015-Jun-26 12:21N 35°60' W 005°29'1114.0
2015-Jun-26 11:34N 36°04' W 005°17'11614.4
2015-Jun-26 03:31N 36°19' W 002°55'1415.1
2015-Jun-26 02:33N 36°22' W 002°37'1615.5
2015-Jun-26 01:33N 36°24' W 002°18'1514.9
2015-Jun-26 00:33N 36°32' W 002°02'1615.6
2015-Jun-25 23:33N 36°42' W 001°47'1615.6
2015-Jun-25 22:33N 36°53' W 001°33'1615.4
2015-Jun-25 21:30N 37°05' W 001°19'1515.4
2015-Jun-25 20:33N 37°15' W 001°06'1515.4
2015-Jun-25 19:34N 37°26' W 000°52'1615.6
2015-Jun-25 18:33N 37°34' W 000°35'1515.1
2015-Jun-25 17:33N 37°46' W 000°24'1515.1
2015-Jun-25 16:33N 37°59' W 000°15'1615.4
2015-Jun-25 15:33N 38°12' W 000°05'6115.2
2015-Jun-25 11:30N 39°02' E 000°42'1415.2
2015-Jun-25 10:33N 39°13' E 000°54'3913.0
2015-Jun-25 07:33N 39°43' E 001°26'1414.3
2015-Jun-25 06:33N 39°54' E 001°37'1514.9
2015-Jun-25 05:33N 40°06' E 001°49'1313.2
2015-Jun-25 04:33N 40°16' E 002°00'1313.3
2015-Jun-25 03:33N 40°27' E 002°10'1313.2
2015-Jun-25 02:33N 40°38' E 002°20'1313.2
2015-Jun-25 01:33N 40°49' E 002°30'1313.3
2015-Jun-25 00:33N 41°00' E 002°39'1313.2
2015-Jun-24 23:34N 41°11' E 002°48'1313.3
2015-Jun-24 22:33N 41°23' E 002°58'1413.2
2015-Jun-24 21:29N 41°35' E 003°08'1213.1
2015-Jun-24 20:33N 41°44' E 003°17'1313.1
2015-Jun-24 19:33N 41°53' E 003°30'2713.3
2015-Jun-24 17:31N 42°09' E 004°00'1313.1
2015-Jun-24 16:33N 42°19' E 004°11'1313.1
2015-Jun-24 15:33N 42°29' E 004°22'1313.2
2015-Jun-24 14:33N 42°39' E 004°32'1313.0
2015-Jun-24 13:33N 42°49' E 004°44'1312.9
2015-Jun-24 12:33N 42°59' E 004°55'1312.8
2015-Jun-24 11:33N 43°09' E 005°06'1212.0
2015-Jun-24 10:33N 43°19' E 005°15'5 4.6
2015-Jun-24 09:33N 43°20' E 005°21'0 0.0
2015-Jun-24 08:33N 43°20' E 005°21'0 0.0
2015-Jun-24 07:33N 43°20' E 005°21'0 0.0
2015-Jun-24 06:33N 43°20' E 005°21'0 0.0
2015-Jun-24 05:33N 43°20' E 005°21'0 0.0
2015-Jun-24 04:33N 43°20' E 005°21'0 0.0
2015-Jun-24 03:33N 43°20' E 005°21'0 0.0
2015-Jun-24 02:33N 43°20' E 005°21'0 0.0
2015-Jun-24 01:33N 43°20' E 005°21'0 0.0
2015-Jun-24 00:33N 43°20' E 005°21'0 0.0
2015-Jun-23 23:33N 43°20' E 005°21'0 0.0
2015-Jun-23 22:33N 43°20' E 005°21'0 0.0
2015-Jun-23 21:33N 43°20' E 005°21'0 0.0
2015-Jun-23 20:33N 43°20' E 005°21'0 0.0
2015-Jun-23 19:33N 43°20' E 005°21'0 0.0
2015-Jun-23 19:05N 43°20' E 005°21'0 0.0
2015-Jun-22 19:33N 43°20' E 005°21'0 0.0
2015-Jun-22 18:33N 43°20' E 005°21'0 0.0
2015-Jun-22 17:33N 43°20' E 005°21'0 0.0
2015-Jun-22 16:33N 43°20' E 005°21'0 0.0
2015-Jun-22 15:33N 43°20' E 005°21'0 0.0
2015-Jun-22 14:33N 43°20' E 005°21'0 0.0
2015-Jun-22 13:33N 43°20' E 005°21'0 0.0
2015-Jun-22 12:33N 43°20' E 005°21'0 0.0
2015-Jun-22 11:34N 43°20' E 005°21'0 0.0
2015-Jun-22 10:33N 43°20' E 005°21'0 0.0
2015-Jun-22 09:33N 43°20' E 005°21'0 0.0
2015-Jun-22 08:33N 43°20' E 005°21'0 0.0
2015-Jun-22 07:34N 43°20' E 005°21'0 0.0
2015-Jun-22 06:33N 43°20' E 005°21'0 0.0
2015-Jun-22 05:33N 43°20' E 005°21'0 0.0
2015-Jun-22 04:33N 43°20' E 005°21'0 0.0
2015-Jun-22 03:33N 43°20' E 005°21'0 0.0
2015-Jun-22 02:33N 43°20' E 005°21'0 0.0
2015-Jun-22 01:33N 43°20' E 005°21'0 0.0
2015-Jun-22 00:33N 43°20' E 005°21'0 0.0
2015-Jun-21 23:33N 43°20' E 005°21'0 0.0
2015-Jun-21 22:33N 43°20' E 005°21'0 0.0
2015-Jun-21 21:33N 43°20' E 005°21'0 0.0
2015-Jun-21 20:33N 43°20' E 005°21'0 0.0
2015-Jun-21 19:33N 43°20' E 005°21'0 0.0
2015-Jun-21 18:33N 43°20' E 005°21'0 0.0
2015-Jun-21 17:33N 43°20' E 005°21'0 0.0
2015-Jun-21 16:33N 43°20' E 005°21'0 0.0
2015-Jun-21 15:30N 43°20' E 005°21'0 0.0
2015-Jun-21 14:33N 43°20' E 005°21'0 0.0
2015-Jun-21 13:34N 43°20' E 005°21'0 0.0
2015-Jun-21 12:33N 43°20' E 005°21'0 0.0
2015-Jun-21 11:33N 43°20' E 005°21'0 0.0
2015-Jun-21 10:33N 43°20' E 005°21'0 0.0
2015-Jun-21 09:33N 43°20' E 005°21'0 0.0
2015-Jun-21 08:33N 43°20' E 005°21'0 0.0
2015-Jun-21 07:33N 43°20' E 005°21'0 0.0
2015-Jun-21 06:33N 43°20' E 005°21'0 0.0
2015-Jun-21 05:33N 43°20' E 005°21'0 0.0
2015-Jun-21 04:33N 43°20' E 005°21'0 0.0
2015-Jun-21 03:29N 43°20' E 005°21'0 0.0
2015-Jun-21 02:31N 43°20' E 005°21'0 0.0
2015-Jun-21 01:30N 43°20' E 005°21'0 0.0
2015-Jun-21 00:33N 43°20' E 005°21'0 0.0
2015-Jun-20 23:33N 43°20' E 005°21'0 0.0
2015-Jun-20 22:33N 43°20' E 005°21'0 0.0
2015-Jun-20 21:33N 43°20' E 005°21'0 0.0
2015-Jun-20 20:33N 43°20' E 005°21'0 0.0
2015-Jun-20 19:33N 43°20' E 005°21'0 0.0
2015-Jun-20 18:33N 43°20' E 005°21'0 0.0
2015-Jun-20 17:33N 43°20' E 005°21'0 0.0
2015-Jun-20 16:33N 43°20' E 005°21'0 0.0
2015-Jun-20 15:32N 43°20' E 005°21'0 0.0
2015-Jun-20 14:33N 43°20' E 005°21'0 0.0
2015-Jun-20 13:34N 43°20' E 005°21'0 0.0
2015-Jun-20 12:33N 43°20' E 005°21'0 0.0
2015-Jun-20 11:33N 43°20' E 005°21'0 0.0
2015-Jun-20 10:34N 43°20' E 005°21'0 0.0
2015-Jun-20 09:33N 43°20' E 005°21'0 0.0
2015-Jun-20 08:34N 43°20' E 005°21'0 0.0
2015-Jun-20 07:33N 43°20' E 005°21'0 0.0
2015-Jun-20 06:33N 43°20' E 005°21'0 0.0
2015-Jun-20 05:33N 43°20' E 005°21'0 0.0
2015-Jun-20 04:33N 43°20' E 005°21'0 0.0
2015-Jun-20 03:33N 43°20' E 005°21'0 0.0
2015-Jun-20 02:33N 43°20' E 005°21'0 0.0
2015-Jun-20 01:33N 43°20' E 005°21'0 0.0
2015-Jun-20 00:33N 43°20' E 005°21'0 0.0
2015-Jun-19 23:33N 43°20' E 005°21'0 0.0
2015-Jun-19 22:33N 43°20' E 005°21'0 0.0
2015-Jun-19 21:33N 43°20' E 005°21'0 0.0
2015-Jun-19 20:33N 43°20' E 005°21'0 0.0
2015-Jun-19 19:33N 43°20' E 005°21'0 0.0
2015-Jun-19 18:33N 43°20' E 005°21'0 0.0
2015-Jun-19 17:33N 43°20' E 005°21'0 0.0
2015-Jun-19 16:33N 43°20' E 005°21'0 0.0
2015-Jun-19 15:33N 43°20' E 005°21'0 0.0
2015-Jun-19 14:33N 43°20' E 005°21'0 0.0
2015-Jun-19 13:33N 43°20' E 005°21'0 0.0
2015-Jun-19 12:32N 43°20' E 005°21'0 0.0
2015-Jun-19 11:33N 43°20' E 005°21'0 0.0
2015-Jun-19 10:34N 43°20' E 005°21'  

Dump ship's entire track history